Time;durP1;ratioP1;P1;durP2;ratioP2;P2;SDS_P1;SDS_P2;PMS_P1;PMS_P2;Temp;Humidity;BMP_temperature;BMP_pressure;BME280_temperature;BME280_humidity;BME280_pressure;Samples;Min_cycle;Max_cycle;Signal;HPM_P1;HPM_P2
2022/05/15 00:02:11;;;;;;;4.80;4.33;;;16.30;99.90;;;;;;5091974;28;21091;-43
2022/05/15 00:04:39;;;;;;;5.33;3.80;;;16.30;99.90;;;;;;5092489;28;20467;-43
2022/05/15 00:07:07;;;;;;;4.90;4.60;;;16.30;99.90;;;;;;5092573;28;20451;-43
2022/05/15 00:09:34;;;;;;;5.60;4.20;;;16.20;99.90;;;;;;5092393;28;20502;-44
2022/05/15 00:12:02;;;;;;;4.70;4.30;;;16.10;99.90;;;;;;5092401;28;20946;-43
2022/05/15 00:14:30;;;;;;;4.30;3.90;;;16.10;99.90;;;;;;5092356;28;20957;-43
2022/05/15 00:16:57;;;;;;;4.30;3.90;;;16.00;99.90;;;;;;5092371;28;20500;-43
2022/05/15 00:19:25;;;;;;;5.23;4.77;;;16.10;99.90;;;;;;5091761;28;20542;-43
2022/05/15 00:21:52;;;;;;;4.10;3.70;;;16.10;99.90;;;;;;5092204;28;20511;-43
2022/05/15 00:24:20;;;;;;;4.77;4.30;;;16.10;99.90;;;;;;5092091;28;20454;-43
2022/05/15 00:26:47;;;;;;;4.93;4.47;;;16.00;99.90;;;;;;5092376;28;20443;-44
2022/05/15 00:29:14;;;;;;;4.80;4.23;;;15.90;99.90;;;;;;5091753;28;20880;-43
2022/05/15 00:31:41;;;;;;;5.37;4.90;;;16.00;99.90;;;;;;5092115;28;20971;-45
2022/05/15 00:34:08;;;;;;;4.93;4.40;;;16.10;99.90;;;;;;5092037;28;20530;-43
2022/05/15 00:36:36;;;;;;;4.90;4.23;;;16.10;99.90;;;;;;5092339;28;21123;-43
2022/05/15 00:39:03;;;;;;;5.40;4.67;;;16.10;99.90;;;;;;5091647;28;20453;-45
2022/05/15 00:41:30;;;;;;;5.57;5.07;;;16.10;99.90;;;;;;5092023;28;21079;-43
2022/05/15 00:43:58;;;;;;;5.10;4.40;;;16.00;99.90;;;;;;5092279;28;20501;-45
2022/05/15 00:46:28;;;;;;;4.70;4.30;;;16.00;99.90;;;;;;5091790;28;20500;-44
2022/05/15 00:48:57;;;;;;;4.83;4.33;;;15.90;99.90;;;;;;5091538;28;20501;-45
2022/05/15 00:51:29;;;;;;;4.60;4.20;;;15.90;99.90;;;;;;5091950;28;20807;-43
2022/05/15 00:54:04;;;;;;;4.63;4.23;;;15.90;99.90;;;;;;5091825;28;20493;-43
2022/05/15 00:56:34;;;;;;;4.93;4.10;;;15.90;99.90;;;;;;5091804;28;20471;-43
2022/05/15 00:59:08;;;;;;;4.67;4.27;;;15.90;99.90;;;;;;5091087;28;20572;-43
2022/05/15 01:01:35;;;;;;;5.60;5.10;;;15.90;99.90;;;;;;5092064;28;20558;-44
2022/05/15 01:04:02;;;;;;;5.40;4.90;;;15.90;99.90;;;;;;5091580;28;20930;-43
2022/05/15 01:06:30;;;;;;;4.87;4.37;;;15.80;99.90;;;;;;5091543;28;20482;-43
2022/05/15 01:09:01;;;;;;;6.37;4.10;;;15.80;99.90;;;;;;5091446;28;20444;-45
2022/05/15 01:11:28;;;;;;;5.43;4.70;;;15.70;99.90;;;;;;5091548;28;20470;-46
2022/05/15 01:13:55;;;;;;;4.37;3.90;;;15.70;99.90;;;;;;5091287;28;20467;-43
2022/05/15 01:16:25;;;;;;;4.70;4.30;;;15.70;99.90;;;;;;5091558;28;20435;-44
2022/05/15 01:18:57;;;;;;;5.40;4.40;;;15.70;99.90;;;;;;5091321;28;20497;-44
2022/05/15 01:21:29;;;;;;;4.80;4.00;;;15.60;99.90;;;;;;5090906;28;20471;-43
2022/05/15 01:23:57;;;;;;;5.00;4.60;;;15.60;99.90;;;;;;5091557;28;20497;-43
2022/05/15 01:26:25;;;;;;;5.37;4.87;;;15.70;99.90;;;;;;5091848;28;20504;-43
2022/05/15 01:28:52;;;;;;;4.33;3.93;;;15.70;99.90;;;;;;5091102;28;20500;-46
2022/05/15 01:31:20;;;;;;;5.70;5.10;;;15.50;99.90;;;;;;5091233;28;20510;-43
2022/05/15 01:33:48;;;;;;;5.20;4.70;;;15.60;99.90;;;;;;5091041;28;20440;-43
2022/05/15 01:36:16;;;;;;;5.27;4.77;;;15.60;99.90;;;;;;5091471;28;20439;-43
2022/05/15 01:38:44;;;;;;;8.80;4.53;;;15.50;99.90;;;;;;5091155;28;20479;-44
2022/05/15 01:41:12;;;;;;;4.33;4.00;;;15.60;99.90;;;;;;5092124;28;20459;-43
2022/05/15 01:43:40;;;;;;;5.23;4.67;;;15.60;99.90;;;;;;5091101;28;20530;-46
2022/05/15 01:46:07;;;;;;;5.00;4.30;;;15.40;99.90;;;;;;5091083;28;20987;-43
2022/05/15 01:48:34;;;;;;;4.83;4.03;;;15.50;99.90;;;;;;5090978;28;20462;-44
2022/05/15 01:51:01;;;;;;;6.20;3.70;;;15.50;99.90;;;;;;5091077;28;20447;-43
2022/05/15 01:53:28;;;;;;;4.47;4.07;;;15.50;99.90;;;;;;5091059;28;20483;-44
2022/05/15 01:55:57;;;;;;;5.77;4.67;;;15.50;99.90;;;;;;5091383;28;20510;-43
2022/05/15 01:58:24;;;;;;;4.60;4.07;;;15.40;99.90;;;;;;5091211;28;20435;-43
2022/05/15 02:00:51;;;;;;;5.23;4.50;;;15.40;99.90;;;;;;5090827;28;20448;-43
2022/05/15 02:03:19;;;;;;;5.30;4.50;;;15.50;99.90;;;;;;5090759;28;20509;-43
2022/05/15 02:05:46;;;;;;;4.57;4.20;;;15.50;99.90;;;;;;5091250;28;20444;-43
2022/05/15 02:08:13;;;;;;;4.47;4.17;;;15.50;99.90;;;;;;5091194;28;20523;-46
2022/05/15 02:10:40;;;;;;;4.60;4.20;;;15.40;99.90;;;;;;5090678;28;20897;-43
2022/05/15 02:13:08;;;;;;;4.50;4.10;;;15.40;99.90;;;;;;5091015;28;20474;-42
2022/05/15 02:15:35;;;;;;;4.60;4.20;;;15.40;99.90;;;;;;5090873;28;20705;-43
2022/05/15 02:18:04;;;;;;;6.30;5.27;;;15.40;99.90;;;;;;5090797;28;20448;-43
2022/05/15 02:20:31;;;;;;;5.00;4.50;;;15.40;99.90;;;;;;5090347;28;20509;-43
2022/05/15 02:22:58;;;;;;;4.40;4.00;;;15.30;99.90;;;;;;5090743;28;20479;-45
2022/05/15 02:25:27;;;;;;;5.03;4.50;;;15.20;99.90;;;;;;5091182;28;20474;-43
2022/05/15 02:27:54;;;;;;;4.10;3.80;;;15.30;99.90;;;;;;5094288;28;20447;-46
2022/05/15 02:30:23;;;;;;;4.70;4.27;;;15.30;99.90;;;;;;5094091;28;20455;-44
2022/05/15 02:32:51;;;;;;;5.77;5.13;;;15.30;99.90;;;;;;5094479;28;20443;-44
2022/05/15 02:35:18;;;;;;;4.23;3.83;;;15.30;99.90;;;;;;5094402;28;20439;-43
2022/05/15 02:37:47;;;;;;;4.10;3.70;;;15.20;99.90;;;;;;5094476;28;20439;-43
2022/05/15 02:40:15;;;;;;;5.23;4.70;;;15.10;99.90;;;;;;5093882;28;20474;-43
2022/05/15 02:42:42;;;;;;;4.57;4.17;;;15.10;99.90;;;;;;5094315;28;20896;-43
2022/05/15 02:45:10;;;;;;;4.23;3.83;;;14.90;99.90;;;;;;5094240;28;20526;-43
2022/05/15 02:47:38;;;;;;;4.13;3.73;;;14.90;99.90;;;;;;5093927;28;20925;-43
2022/05/15 02:52:53;;;;;;;4.43;4.03;;;14.80;99.90;;;;;;5094001;28;20856;-43
2022/05/15 02:55:21;;;;;;;5.27;4.77;;;14.80;99.90;;;;;;5093790;28;21163;-44
2022/05/15 02:57:48;;;;;;;4.93;4.03;;;14.70;99.90;;;;;;5093802;28;20479;-43
2022/05/15 03:00:16;;;;;;;4.50;4.10;;;14.80;99.90;;;;;;5093639;28;20455;-43
2022/05/15 03:02:45;;;;;;;6.43;4.57;;;14.80;99.90;;;;;;5093609;28;21123;-43
2022/05/15 03:05:14;;;;;;;4.90;4.40;;;14.80;99.90;;;;;;5093734;28;20527;-43
2022/05/15 03:07:42;;;;;;;5.53;4.60;;;14.80;99.90;;;;;;5094058;28;20440;-45
2022/05/15 03:10:12;;;;;;;4.73;4.20;;;14.80;99.90;;;;;;5093563;28;20495;-43
2022/05/15 03:12:39;;;;;;;4.10;3.80;;;14.70;99.90;;;;;;5093634;28;20442;-45
2022/05/15 03:15:07;;;;;;;4.67;4.27;;;14.70;99.90;;;;;;5093343;28;20475;-43
2022/05/15 03:17:35;;;;;;;4.87;3.97;;;14.70;99.90;;;;;;5093442;28;20443;-42
2022/05/15 03:20:04;;;;;;;5.87;4.33;;;14.70;99.90;;;;;;5092690;28;20813;-44
2022/05/15 03:22:31;;;;;;;5.30;4.73;;;14.60;99.90;;;;;;5093424;28;20506;-43
2022/05/15 03:24:59;;;;;;;7.30;4.60;;;14.50;99.90;;;;;;5093424;28;20479;-43
2022/05/15 03:27:26;;;;;;;5.43;4.93;;;14.50;99.90;;;;;;5093067;28;20466;-45
2022/05/15 03:29:53;;;;;;;4.50;3.87;;;14.60;99.90;;;;;;5092822;28;20475;-43
2022/05/15 03:32:20;;;;;;;5.17;4.10;;;14.70;99.90;;;;;;5093372;28;20463;-45
2022/05/15 03:34:47;;;;;;;4.60;4.30;;;14.70;99.90;;;;;;5093572;28;20467;-43
2022/05/15 03:37:15;;;;;;;4.60;4.20;;;14.80;99.90;;;;;;5093152;28;20501;-43
2022/05/15 03:39:42;;;;;;;4.90;4.23;;;14.80;99.90;;;;;;5092778;28;20491;-43
2022/05/15 03:42:10;;;;;;;4.63;4.10;;;14.80;99.90;;;;;;5092832;28;20562;-43
2022/05/15 03:44:37;;;;;;;4.10;3.80;;;14.80;99.90;;;;;;5093039;28;20500;-46
2022/05/15 03:47:05;;;;;;;4.90;4.40;;;14.80;99.90;;;;;;5093060;28;20486;-43
2022/05/15 03:49:32;;;;;;;5.73;4.27;;;14.70;99.90;;;;;;5092484;28;20542;-43
2022/05/15 03:51:59;;;;;;;5.53;4.13;;;14.70;99.90;;;;;;5092715;28;20443;-43
2022/05/15 03:54:27;;;;;;;5.63;4.20;;;14.70;99.90;;;;;;5092606;28;20443;-43
2022/05/15 03:56:54;;;;;;;5.77;4.20;;;14.70;99.90;;;;;;5092636;28;20443;-43
2022/05/15 03:59:23;;;;;;;5.30;4.80;;;14.70;99.90;;;;;;5092200;28;20459;-44
2022/05/15 04:01:50;;;;;;;4.30;3.90;;;14.70;99.90;;;;;;5092690;28;20478;-45
2022/05/15 04:04:18;;;;;;;4.67;4.07;;;14.70;99.90;;;;;;5092714;28;20562;-43
2022/05/15 04:06:45;;;;;;;5.33;3.53;;;14.80;99.90;;;;;;5092231;28;20970;-43
2022/05/15 04:09:12;;;;;;;4.33;3.97;;;14.80;99.90;;;;;;5092301;28;20813;-43
2022/05/15 04:11:40;;;;;;;4.10;3.70;;;14.80;99.90;;;;;;5092062;28;20455;-43
2022/05/15 04:14:08;;;;;;;4.70;4.30;;;14.80;99.90;;;;;;5092628;28;20475;-43
2022/05/15 04:16:35;;;;;;;5.20;4.70;;;14.80;99.90;;;;;;5092456;28;20837;-45
2022/05/15 04:19:03;;;;;;;4.43;4.03;;;14.60;99.90;;;;;;5091866;28;20866;-43
2022/05/15 04:21:36;;;;;;;5.47;4.57;;;14.70;99.90;;;;;;5091863;28;20945;-43
2022/05/15 04:24:04;;;;;;;4.23;3.90;;;14.70;99.90;;;;;;5092464;28;20482;-45
2022/05/15 04:26:30;;;;;;;5.63;4.43;;;14.70;99.90;;;;;;5092374;28;20866;-43
2022/05/15 04:28:59;;;;;;;4.53;4.13;;;14.70;99.90;;;;;;5091780;28;20534;-45
2022/05/15 04:31:26;;;;;;;6.97;4.23;;;14.80;99.90;;;;;;5092115;28;20493;-44
2022/05/15 04:33:53;;;;;;;5.70;4.77;;;14.80;99.90;;;;;;5091874;28;20435;-43
2022/05/15 04:36:20;;;;;;;4.47;4.07;;;14.70;99.90;;;;;;5092269;28;20483;-44
2022/05/15 04:38:46;;;;;;;4.07;3.67;;;14.70;99.90;;;;;;5091813;28;20439;-44
2022/05/15 04:41:13;;;;;;;5.67;4.30;;;14.80;99.90;;;;;;5091583;28;20493;-43
2022/05/15 04:43:40;;;;;;;5.40;4.03;;;14.70;99.90;;;;;;5091865;28;20536;-46
2022/05/15 04:46:09;;;;;;;4.70;4.30;;;14.70;99.90;;;;;;5091892;28;20467;-43
2022/05/15 04:48:36;;;;;;;5.13;4.73;;;14.60;99.90;;;;;;5091152;28;20471;-44
2022/05/15 04:51:03;;;;;;;5.10;4.67;;;14.60;99.90;;;;;;5091682;28;20502;-46
2022/05/15 04:53:30;;;;;;;5.07;4.67;;;14.60;99.90;;;;;;5091918;28;20435;-43
2022/05/15 04:55:57;;;;;;;5.50;4.50;;;14.60;99.90;;;;;;5091792;28;20530;-45
2022/05/15 04:58:24;;;;;;;5.90;4.57;;;14.60;99.90;;;;;;5091748;28;20467;-44
2022/05/15 05:00:51;;;;;;;4.83;4.40;;;14.60;99.90;;;;;;5091344;28;20528;-46
2022/05/15 05:03:20;;;;;;;5.40;4.70;;;14.60;99.90;;;;;;5091564;28;20514;-44
2022/05/15 05:05:47;;;;;;;5.57;4.30;;;14.70;99.90;;;;;;5091812;28;20522;-43
2022/05/15 05:08:14;;;;;;;6.87;4.90;;;14.60;99.90;;;;;;5091486;28;20913;-45
2022/05/15 05:10:41;;;;;;;5.80;4.50;;;14.70;99.90;;;;;;5091092;28;20515;-44
2022/05/15 05:13:09;;;;;;;5.10;4.57;;;14.70;99.90;;;;;;5091294;28;20435;-44
2022/05/15 05:15:36;;;;;;;5.60;4.37;;;14.70;99.90;;;;;;5091404;28;20512;-43
2022/05/15 05:18:03;;;;;;;6.50;5.90;;;14.60;99.90;;;;;;5091557;28;20439;-44
2022/05/15 05:20:32;;;;;;;5.90;4.93;;;14.60;99.90;;;;;;5090765;28;20459;-43
2022/05/15 05:22:58;;;;;;;4.10;3.70;;;14.50;99.90;;;;;;5091123;28;21056;-45
2022/05/15 05:25:25;;;;;;;5.53;4.47;;;14.60;99.90;;;;;;5091450;28;20466;-44
2022/05/15 05:27:52;;;;;;;4.77;4.37;;;14.60;99.90;;;;;;5091035;28;20431;-44
2022/05/15 05:30:21;;;;;;;5.07;4.57;;;14.60;99.90;;;;;;5091209;28;20904;-47
2022/05/15 05:32:49;;;;;;;5.43;4.40;;;14.60;99.90;;;;;;5091412;28;20523;-43
2022/05/15 05:35:18;;;;;;;5.37;4.87;;;14.70;99.90;;;;;;5091071;28;20448;-44
2022/05/15 05:37:46;;;;;;;7.00;4.63;;;14.70;99.90;;;;;;5091206;28;20505;-43
2022/05/15 05:40:13;;;;;;;5.53;4.90;;;14.60;99.90;;;;;;5090782;28;20543;-44
2022/05/15 05:42:40;;;;;;;5.80;4.57;;;14.60;99.90;;;;;;5090921;28;20593;-44
2022/05/15 05:45:09;;;;;;;4.87;4.47;;;14.70;99.90;;;;;;5091041;28;20440;-44
2022/05/15 05:47:36;;;;;;;4.90;4.40;;;14.70;99.90;;;;;;5091005;28;20439;-43
2022/05/15 05:50:05;;;;;;;5.20;4.70;;;14.80;99.90;;;;;;5090767;28;20491;-44
2022/05/15 05:52:32;;;;;;;4.20;3.90;;;14.70;99.90;;;;;;5090981;28;20527;-43
2022/05/15 05:55:00;;;;;;;5.13;4.73;;;14.70;99.90;;;;;;5091111;28;20478;-43
2022/05/15 05:57:27;;;;;;;5.07;4.57;;;14.70;99.90;;;;;;5091100;28;20527;-46
2022/05/15 05:59:54;;;;;;;4.90;4.10;;;14.80;99.90;;;;;;5091122;28;20459;-44
2022/05/15 06:02:21;;;;;;;5.73;3.90;;;14.80;99.90;;;;;;5094530;28;20439;-44
2022/05/15 06:04:50;;;;;;;4.37;4.07;;;14.80;99.90;;;;;;5094858;28;20486;-44
2022/05/15 06:07:19;;;;;;;7.17;5.23;;;14.90;99.90;;;;;;5094913;28;20500;-45
2022/05/15 06:09:49;;;;;;;4.97;4.47;;;15.30;99.90;;;;;;5094574;28;21275;-43
2022/05/15 06:12:19;;;;;;;4.03;3.70;;;16.10;99.90;;;;;;5095250;28;20530;-45
2022/05/15 06:14:47;;;;;;;5.73;4.40;;;16.60;99.90;;;;;;5094978;28;20489;-44
2022/05/15 06:17:14;;;;;;;5.20;4.67;;;17.00;99.90;;;;;;5094706;28;20482;-44
2022/05/15 06:19:41;;;;;;;5.97;4.10;;;17.10;99.90;;;;;;5093996;28;20579;-45
2022/05/15 06:22:08;;;;;;;5.90;4.90;;;17.10;99.90;;;;;;5094444;28;20435;-44
2022/05/15 06:24:35;;;;;;;5.53;5.03;;;17.10;99.90;;;;;;5094766;28;20557;-44
2022/05/15 06:27:03;;;;;;;5.13;4.70;;;17.10;99.90;;;;;;5094287;28;21003;-44
2022/05/15 06:29:32;;;;;;;5.60;4.60;;;17.20;99.90;;;;;;5093991;28;20843;-44
2022/05/15 06:31:59;;;;;;;4.80;4.40;;;17.20;99.90;;;;;;5094387;28;20820;-47
2022/05/15 06:34:27;;;;;;;5.40;4.70;;;17.20;99.90;;;;;;5094295;28;21020;-44
2022/05/15 06:36:53;;;;;;;5.17;4.77;;;17.10;99.90;;;;;;5094265;28;20862;-45
2022/05/15 06:39:20;;;;;;;6.37;5.00;;;17.10;99.90;;;;;;5093941;28;20455;-44
2022/05/15 06:41:50;;;;;;;5.43;4.93;;;17.00;99.90;;;;;;5094657;28;20431;-44
2022/05/15 06:44:17;;;;;;;4.87;4.37;;;17.00;99.90;;;;;;5094146;28;20475;-44
2022/05/15 06:46:46;;;;;;;6.40;5.30;;;17.10;99.90;;;;;;5094371;28;20864;-45
2022/05/15 06:49:13;;;;;;;7.00;6.40;;;17.10;99.90;;;;;;5094053;28;20622;-44
2022/05/15 06:51:41;;;;;;;8.40;6.17;;;17.10;99.90;;;;;;5094065;28;20522;-45
2022/05/15 06:54:08;;;;;;;7.13;5.37;;;16.90;99.90;;;;;;5094176;28;20435;-44
2022/05/15 06:59:20;;;;;;;5.90;5.30;;;17.00;99.90;;;;;;5093665;28;20514;-45
2022/05/15 07:01:48;;;;;;;5.13;4.63;;;17.00;99.90;;;;;;5093911;28;20439;-46
2022/05/15 07:04:15;;;;;;;5.23;4.73;;;17.10;99.90;;;;;;5093875;28;20616;-45
2022/05/15 07:06:42;;;;;;;5.37;4.87;;;17.10;99.90;;;;;;5093932;28;20482;-44
2022/05/15 07:09:09;;;;;;;4.80;4.30;;;16.70;99.90;;;;;;5093948;28;20447;-45
2022/05/15 07:11:36;;;;;;;6.00;5.10;;;16.60;99.90;;;;;;5093131;28;20501;-45
2022/05/15 07:14:04;;;;;;;4.33;3.93;;;16.50;99.90;;;;;;5093495;28;20432;-44
2022/05/15 07:16:31;;;;;;;5.40;4.90;;;16.50;99.90;;;;;;5093596;28;20952;-44
2022/05/15 07:18:59;;;;;;;5.50;5.00;;;16.40;99.90;;;;;;5093356;28;20435;-47
2022/05/15 07:21:26;;;;;;;5.77;5.20;;;16.30;99.90;;;;;;5093011;28;20580;-46
2022/05/15 07:23:53;;;;;;;5.73;5.23;;;16.30;99.90;;;;;;5093195;28;20475;-44
2022/05/15 07:26:20;;;;;;;5.30;4.67;;;16.30;99.90;;;;;;5093326;28;20439;-44
2022/05/15 07:28:50;;;;;;;6.40;5.30;;;16.40;99.90;;;;;;5092994;28;20486;-45
2022/05/15 07:31:18;;;;;;;6.50;5.13;;;16.50;99.90;;;;;;5093071;28;20467;-46
2022/05/15 07:33:46;;;;;;;4.80;4.30;;;16.60;99.90;;;;;;5093081;28;20942;-45
2022/05/15 07:36:14;;;;;;;5.90;5.40;;;16.90;99.90;;;;;;5093203;28;20500;-44
2022/05/15 07:38:41;;;;;;;4.80;4.40;;;17.10;99.90;;;;;;5092730;28;20965;-48
2022/05/15 07:41:09;;;;;;;4.93;4.23;;;17.50;99.90;;;;;;5093829;28;20486;-44
2022/05/15 07:43:36;;;;;;;6.53;4.80;;;17.80;99.90;;;;;;5092991;28;20507;-46
2022/05/15 07:46:03;;;;;;;5.40;4.97;;;18.00;99.90;;;;;;5093084;28;20496;-44
2022/05/15 07:48:30;;;;;;;7.30;4.80;;;18.50;99.90;;;;;;5092956;28;20522;-45
2022/05/15 07:50:57;;;;;;;6.17;4.30;;;18.90;99.90;;;;;;5092820;28;20459;-44
2022/05/15 07:53:25;;;;;;;5.57;4.60;;;19.10;99.90;;;;;;5093013;28;20514;-44
2022/05/15 07:55:54;;;;;;;4.77;4.37;;;18.80;99.90;;;;;;5092656;28;20881;-47
2022/05/15 07:58:23;;;;;;;5.60;4.70;;;18.80;99.90;;;;;;5092772;28;20448;-45
2022/05/15 08:00:52;;;;;;;6.30;5.27;;;18.90;99.90;;;;;;5092257;28;20459;-45
2022/05/15 08:03:19;;;;;;;5.27;4.57;;;18.90;99.90;;;;;;5092694;28;20440;-45
2022/05/15 08:08:32;;;;;;;6.13;5.53;;;18.60;99.90;;;;;;5092438;28;20932;-44
2022/05/15 08:11:01;;;;;;;4.40;4.00;;;18.50;99.90;;;;;;5092280;28;20550;-44
2022/05/15 08:13:30;;;;;;;4.80;4.40;;;18.60;99.90;;;;;;5092479;28;20442;-45
2022/05/15 08:15:57;;;;;;;5.73;4.80;;;18.90;99.90;;;;;;5092631;28;20696;-44
2022/05/15 08:23:58;;;;;;;4.73;4.33;;;19.30;99.90;;;;;;5091498;28;20465;-44
2022/05/15 08:26:25;;;;;;;5.10;4.60;;;19.40;99.90;;;;;;5092730;28;20486;-45
2022/05/15 08:28:53;;;;;;;5.50;4.23;;;19.50;99.90;;;;;;5092066;28;20455;-47
2022/05/15 08:31:21;;;;;;;5.87;5.37;;;19.60;99.90;;;;;;5092597;28;20518;-45
2022/05/15 08:33:48;;;;;;;5.27;4.77;;;19.50;99.90;;;;;;5091850;28;20440;-44
2022/05/15 08:36:16;;;;;;;5.83;4.53;;;19.50;99.90;;;;;;5092486;28;20450;-44
2022/05/15 08:38:44;;;;;;;9.20;5.60;;;19.60;99.90;;;;;;5092170;28;20865;-44
2022/05/15 08:41:18;;;;;;;6.13;4.90;;;19.80;99.90;;;;;;5092056;28;20474;-47
2022/05/15 08:43:47;;;;;;;5.37;4.87;;;19.80;99.90;;;;;;5091874;28;20562;-46
2022/05/15 08:46:39;;;;;;;6.30;5.20;;;19.90;99.90;;;;;;5091843;28;20444;-44
2022/05/15 08:49:11;;;;;;;4.93;4.53;;;20.00;99.90;;;;;;5088440;28;20454;-45
2022/05/15 08:51:43;;;;;;;5.80;4.70;;;19.90;99.90;;;;;;5091575;28;20933;-46
2022/05/15 08:54:13;;;;;;;6.40;5.40;;;19.80;99.90;;;;;;5091634;28;20470;-45
2022/05/15 08:56:47;;;;;;;5.10;4.60;;;19.80;99.90;;;;;;5091703;28;20508;-45
2022/05/15 08:59:23;;;;;;;5.10;4.70;;;19.70;99.90;;;;;;5091461;28;20473;-44
2022/05/15 09:01:54;;;;;;;4.40;4.00;;;19.80;99.90;;;;;;5091607;28;20485;-44
2022/05/15 09:04:21;;;;;;;6.50;4.47;;;20.00;99.90;;;;;;5091893;28;20551;-47
2022/05/15 09:06:58;;;;;;;5.43;4.50;;;20.10;99.90;;;;;;5091704;28;20440;-45
2022/05/15 09:09:32;;;;;;;5.10;4.60;;;20.00;99.90;;;;;;5091257;28;21039;-45
2022/05/15 09:12:07;;;;;;;5.20;4.70;;;20.10;99.90;;;;;;5091844;28;20471;-48
2022/05/15 09:14:46;;;;;;;5.60;5.20;;;20.10;99.90;;;;;;5091660;28;20439;-45
2022/05/15 09:17:20;;;;;;;5.60;5.10;;;20.10;99.90;;;;;;5091705;28;20751;-44
2022/05/15 09:19:50;;;;;;;4.93;4.43;;;20.10;99.90;;;;;;5090969;28;20491;-44
2022/05/15 09:22:18;;;;;;;5.40;4.77;;;20.20;99.90;;;;;;5091288;28;20964;-44
2022/05/15 09:24:48;;;;;;;4.83;4.43;;;20.30;99.90;;;;;;5091400;28;20479;-44
2022/05/15 09:27:19;;;;;;;4.40;4.10;;;20.50;99.90;;;;;;5091770;28;20444;-44
2022/05/15 09:29:53;;;;;;;5.60;4.90;;;20.50;99.90;;;;;;5090931;28;20837;-44
2022/05/15 09:32:31;;;;;;;5.50;5.00;;;20.60;99.90;;;;;;5091609;28;20439;-45
2022/05/15 09:35:00;;;;;;;5.10;4.70;;;20.70;99.90;;;;;;5092409;28;20526;-44
2022/05/15 09:40:15;;;;;;;5.33;4.83;;;20.70;99.90;;;;;;5094831;28;20434;-45
2022/05/15 09:45:55;;;;;;;4.83;4.43;;;20.90;99.90;;;;;;5095292;28;20880;-44
2022/05/15 09:48:24;;;;;;;4.37;3.97;;;21.10;99.90;;;;;;5095247;28;20471;-45
2022/05/15 09:51:00;;;;;;;5.73;4.17;;;21.10;99.90;;;;;;5094776;28;20470;-47
2022/05/15 09:53:41;;;;;;;10.03;5.63;;;21.20;99.90;;;;;;5095489;28;20443;-44
2022/05/15 09:56:10;;;;;;;4.57;4.17;;;21.20;99.90;;;;;;5095120;28;20447;-45
2022/05/15 09:58:41;;;;;;;6.80;6.17;;;21.20;99.90;;;;;;5095284;28;20447;-45
2022/05/15 10:01:25;;;;;;;5.30;4.80;;;21.30;99.90;;;;;;5094692;28;20905;-47
2022/05/15 10:03:54;;;;;;;5.37;4.50;;;21.40;99.90;;;;;;5095125;28;20521;-44
2022/05/15 10:06:25;;;;;;;4.80;4.30;;;21.50;99.90;;;;;;5095119;28;20956;-44
2022/05/15 10:09:14;;;;;;;4.97;4.30;;;21.60;99.90;;;;;;5094663;28;20530;-44
2022/05/15 10:11:46;;;;;;;5.23;4.60;;;21.80;99.90;;;;;;5094853;28;20451;-44
2022/05/15 10:14:26;;;;;;;6.00;5.40;;;21.80;99.90;;;;;;5094939;28;20493;-44
2022/05/15 10:16:56;;;;;;;4.43;4.03;;;21.90;99.90;;;;;;5094887;28;20468;-45
2022/05/15 10:19:33;;;;;;;4.97;4.57;;;22.10;99.90;;;;;;5093832;28;20490;-44
2022/05/15 10:22:18;;;;;;;4.80;4.30;;;22.20;99.90;;;;;;5094435;28;20932;-45
2022/05/15 10:24:46;;;;;;;5.13;4.73;;;22.20;99.90;;;;;;5094522;28;20503;-45
2022/05/15 10:27:22;;;;;;;5.20;4.70;;;22.30;99.90;;;;;;5094474;28;20439;-44
2022/05/15 10:29:57;;;;;;;5.33;4.90;;;22.30;99.90;;;;;;5094643;28;20467;-45
2022/05/15 10:32:30;;;;;;;5.80;5.30;;;22.40;99.90;;;;;;5094495;28;20442;-45
2022/05/15 10:34:58;;;;;;;10.43;4.93;;;22.50;99.90;;;;;;5094397;28;21116;-44
2022/05/15 10:37:45;;;;;;;5.10;4.60;;;22.60;99.90;;;;;;5094199;28;20980;-45
2022/05/15 10:40:22;;;;;;;5.07;4.67;;;22.80;99.90;;;;;;5093787;28;20899;-44
2022/05/15 10:42:58;;;;;;;6.83;5.03;;;22.90;99.90;;;;;;5094337;28;20466;-47
2022/05/15 10:45:34;;;;;;;5.97;4.37;;;22.90;99.90;;;;;;5093892;28;21035;-47
2022/05/15 10:48:24;;;;;;;4.80;4.40;;;23.00;99.90;;;;;;5093372;28;20500;-44
2022/05/15 10:50:56;;;;;;;5.30;4.90;;;23.10;99.90;;;;;;5093733;28;20467;-45
2022/05/15 10:59:55;;;;;;;4.80;4.33;;;23.20;99.90;;;;;;5093827;28;20443;-44
2022/05/15 11:02:58;;;;;;;5.00;4.47;;;23.20;99.90;;;;;;5093700;28;20941;-47
2022/05/15 11:05:28;;;;;;;5.43;4.60;;;23.30;99.90;;;;;;5093681;28;20479;-45
2022/05/15 11:08:06;;;;;;;5.17;4.00;;;23.40;99.90;;;;;;5093907;28;20823;-44
2022/05/15 11:10:44;;;;;;;5.33;4.83;;;23.40;99.90;;;;;;5093589;28;20467;-44
2022/05/15 11:13:20;;;;;;;4.87;4.47;;;23.50;99.90;;;;;;5093800;28;20435;-45
2022/05/15 11:15:56;;;;;;;4.90;4.50;;;23.60;99.90;;;;;;5093619;28;20439;-47
2022/05/15 11:18:48;;;;;;;4.50;3.87;;;23.60;99.90;;;;;;5093315;28;20447;-47
2022/05/15 11:21:22;;;;;;;4.60;4.10;;;23.60;99.90;;;;;;5092805;28;20463;-45
2022/05/15 11:23:55;;;;;;;4.50;3.90;;;23.70;99.90;;;;;;5093723;28;20504;-45
2022/05/15 11:26:26;;;;;;;4.70;4.17;;;23.70;99.90;;;;;;5093371;28;20519;-45
2022/05/15 11:28:56;;;;;;;4.60;4.17;;;23.80;99.90;;;;;;5092848;28;20534;-44
2022/05/15 11:31:27;;;;;;;5.00;4.20;;;23.80;99.90;;;;;;5093278;28;20495;-44
2022/05/15 11:33:58;;;;;;;5.07;3.90;;;23.90;99.90;;;;;;5093207;28;20548;-45
2022/05/15 11:36:35;;;;;;;4.53;4.13;;;23.90;99.90;;;;;;5093026;28;20500;-44
2022/05/15 11:39:06;;;;;;;5.03;4.57;;;23.90;99.90;;;;;;5092953;28;20478;-44
2022/05/15 11:44:49;;;;;;;5.63;4.40;;;23.80;99.90;;;;;;5088945;27;21130;-45
2022/05/15 11:47:34;;;;;;;5.30;4.50;;;23.80;99.90;;;;;;5088988;28;20463;-43
2022/05/15 11:50:13;;;;;;;5.10;4.60;;;23.80;99.90;;;;;;5085313;28;20773;-46
2022/05/15 11:53:02;;;;;;;5.57;4.47;;;23.80;99.90;;;;;;5088643;28;20505;-44
2022/05/15 11:55:44;;;;;;;4.20;3.80;;;23.70;99.90;;;;;;5087281;28;20435;-44
2022/05/15 11:58:26;;;;;;;4.93;4.50;;;23.70;99.90;;;;;;5076825;22;21000;-50
2022/05/15 12:01:14;;;;;;;5.80;5.30;;;23.70;99.90;;;;;;5047386;28;20456;-44
2022/05/15 12:03:57;;;;;;;6.43;5.10;;;23.60;99.90;;;;;;5047175;28;21095;-44
2022/05/15 12:06:26;;;;;;;6.17;5.17;;;23.60;99.90;;;;;;5047689;28;20469;-45
2022/05/15 12:09:29;;;;;;;5.83;5.30;;;23.50;99.90;;;;;;5042793;28;20473;-47
2022/05/15 12:12:05;;;;;;;5.43;4.93;;;23.50;99.90;;;;;;5027194;28;20476;-49
2022/05/15 12:14:36;;;;;;;5.37;4.90;;;23.40;99.90;;;;;;5027886;28;20469;-44
2022/05/15 12:17:23;;;;;;;6.07;4.50;;;23.50;99.90;;;;;;5027865;28;20545;-44
2022/05/15 12:19:51;;;;;;;4.97;4.57;;;23.60;99.90;;;;;;5027824;28;20846;-44
2022/05/15 12:22:18;;;;;;;4.90;4.23;;;23.60;99.90;;;;;;5027970;28;20493;-44
2022/05/15 12:24:48;;;;;;;5.17;4.07;;;23.70;99.90;;;;;;5026624;28;20482;-45
2022/05/15 12:27:27;;;;;;;8.43;4.23;;;23.90;99.90;;;;;;5025227;28;20470;-44
2022/05/15 12:30:13;;;;;;;6.23;3.87;;;23.90;99.90;;;;;;5025514;28;20532;-46
2022/05/15 12:32:45;;;;;;;4.60;3.87;;;24.10;99.90;;;;;;5025463;28;20557;-47
2022/05/15 12:35:15;;;;;;;3.90;3.60;;;24.30;99.90;;;;;;5024508;28;20521;-45
2022/05/15 12:37:56;;;;;;;4.87;4.17;;;24.40;99.90;;;;;;5025349;28;20994;-45
2022/05/15 12:40:28;;;;;;;5.67;5.17;;;24.40;99.90;;;;;;5025442;28;20430;-47
2022/05/15 12:42:57;;;;;;;6.97;4.43;;;24.50;99.90;;;;;;5025880;28;20470;-44
2022/05/15 12:45:24;;;;;;;3.27;2.93;;;24.50;99.90;;;;;;5025835;28;20529;-44
2022/05/15 12:48:07;;;;;;;4.07;3.63;;;24.60;99.90;;;;;;5025678;28;20490;-45
2022/05/15 12:50:35;;;;;;;5.03;3.30;;;24.70;99.90;;;;;;5025947;28;20451;-44
2022/05/15 12:53:03;;;;;;;4.70;3.90;;;24.70;99.90;;;;;;5025977;28;20900;-48
2022/05/15 12:55:33;;;;;;;3.83;3.47;;;24.80;99.90;;;;;;5017287;28;20475;-44
2022/05/15 12:58:05;;;;;;;3.87;3.00;;;24.90;99.90;;;;;;5013665;28;20553;-44
2022/05/15 13:00:35;;;;;;;4.73;3.60;;;25.00;99.30;;;;;;5014171;28;20447;-44
2022/05/15 13:03:06;;;;;;;6.33;4.23;;;25.00;98.90;;;;;;5014099;28;20439;-47
2022/05/15 13:05:36;;;;;;;5.27;3.10;;;25.00;99.90;;;;;;5014294;28;20859;-44
2022/05/15 13:08:05;;;;;;;3.93;3.40;;;25.10;98.50;;;;;;5013621;28;20517;-48
2022/05/15 13:10:33;;;;;;;6.87;3.50;;;25.10;97.10;;;;;;5012531;28;20474;-46
2022/05/15 13:13:06;;;;;;;6.40;3.73;;;25.20;96.20;;;;;;5011897;28;20521;-46
2022/05/15 13:15:36;;;;;;;4.77;3.40;;;25.30;97.10;;;;;;5012166;28;20546;-46
2022/05/15 13:18:08;;;;;;;3.57;3.27;;;25.30;96.90;;;;;;5012206;28;20655;-51
2022/05/15 13:20:39;;;;;;;3.23;2.73;;;25.40;96.90;;;;;;5012026;28;20462;-47
2022/05/15 13:23:08;;;;;;;3.33;3.03;;;25.40;94.60;;;;;;5012298;28;20414;-44
2022/05/15 13:25:38;;;;;;;3.77;3.10;;;25.40;95.50;;;;;;5011879;28;20447;-46
2022/05/15 13:28:07;;;;;;;3.80;3.10;;;25.40;95.00;;;;;;5010940;28;20463;-49
2022/05/15 13:30:36;;;;;;;3.40;3.00;;;25.50;94.30;;;;;;5011078;28;20449;-44
2022/05/15 13:33:07;;;;;;;4.73;2.63;;;25.50;95.30;;;;;;5011754;28;20475;-45